sensor_id;sensor_type;location;lat;lon;timestamp;temperature;humidity
3001;DHT22;1510;51.072;6.678;2022-07-10T00:01:00;10.60;99.90
3001;DHT22;1510;51.072;6.678;2022-07-10T00:03:27;10.50;99.90
3001;DHT22;1510;51.072;6.678;2022-07-10T00:05:54;10.50;99.90
3001;DHT22;1510;51.072;6.678;2022-07-10T00:08:20;10.50;99.90
3001;DHT22;1510;51.072;6.678;2022-07-10T00:10:47;10.40;99.90
3001;DHT22;1510;51.072;6.678;2022-07-10T00:13:14;10.50;99.90
3001;DHT22;1510;51.072;6.678;2022-07-10T00:15:44;10.60;99.90
3001;DHT22;1510;51.072;6.678;2022-07-10T00:18:14;10.60;99.90
3001;DHT22;1510;51.072;6.678;2022-07-10T00:20:41;10.70;99.90
3001;DHT22;1510;51.072;6.678;2022-07-10T00:23:08;10.70;99.90
3001;DHT22;1510;51.072;6.678;2022-07-10T00:25:35;10.70;99.90
3001;DHT22;1510;51.072;6.678;2022-07-10T00:28:02;10.70;99.90
3001;DHT22;1510;51.072;6.678;2022-07-10T00:30:30;10.80;99.90
3001;DHT22;1510;51.072;6.678;2022-07-10T00:32:56;10.80;99.90
3001;DHT22;1510;51.072;6.678;2022-07-10T00:35:26;10.80;99.90
3001;DHT22;1510;51.072;6.678;2022-07-10T00:37:53;10.90;99.90
3001;DHT22;1510;51.072;6.678;2022-07-10T00:40:22;11.00;99.90
3001;DHT22;1510;51.072;6.678;2022-07-10T00:42:49;11.00;99.90
3001;DHT22;1510;51.072;6.678;2022-07-10T00:45:16;11.10;99.90
3001;DHT22;1510;51.072;6.678;2022-07-10T00:47:43;11.20;99.90
3001;DHT22;1510;51.072;6.678;2022-07-10T00:50:10;11.20;99.90
3001;DHT22;1510;51.072;6.678;2022-07-10T00:52:41;11.30;99.90
3001;DHT22;1510;51.072;6.678;2022-07-10T00:55:09;11.30;99.90
3001;DHT22;1510;51.072;6.678;2022-07-10T00:57:40;11.40;99.90
3001;DHT22;1510;51.072;6.678;2022-07-10T01:00:10;11.40;99.90
3001;DHT22;1510;51.072;6.678;2022-07-10T01:02:41;11.50;99.90
3001;DHT22;1510;51.072;6.678;2022-07-10T01:05:09;11.60;99.90
3001;DHT22;1510;51.072;6.678;2022-07-10T01:07:36;11.70;99.90
3001;DHT22;1510;51.072;6.678;2022-07-10T01:10:05;11.80;99.90
3001;DHT22;1510;51.072;6.678;2022-07-10T01:12:32;11.80;99.90
3001;DHT22;1510;51.072;6.678;2022-07-10T01:15:01;11.80;99.90
3001;DHT22;1510;51.072;6.678;2022-07-10T01:17:30;11.90;99.90
3001;DHT22;1510;51.072;6.678;2022-07-10T01:19:57;11.90;99.90
3001;DHT22;1510;51.072;6.678;2022-07-10T01:22:25;11.90;99.90
3001;DHT22;1510;51.072;6.678;2022-07-10T01:24:52;11.90;99.90
3001;DHT22;1510;51.072;6.678;2022-07-10T01:27:20;11.80;99.90
3001;DHT22;1510;51.072;6.678;2022-07-10T01:29:50;11.90;99.90
3001;DHT22;1510;51.072;6.678;2022-07-10T01:32:17;12.00;99.90
3001;DHT22;1510;51.072;6.678;2022-07-10T01:34:44;11.90;99.90
3001;DHT22;1510;51.072;6.678;2022-07-10T01:37:12;12.00;99.90
3001;DHT22;1510;51.072;6.678;2022-07-10T01:39:40;12.00;99.90
3001;DHT22;1510;51.072;6.678;2022-07-10T01:42:07;12.10;99.90
3001;DHT22;1510;51.072;6.678;2022-07-10T01:44:34;12.10;99.90
3001;DHT22;1510;51.072;6.678;2022-07-10T01:47:01;12.20;99.90
3001;DHT22;1510;51.072;6.678;2022-07-10T01:49:28;12.20;99.90
3001;DHT22;1510;51.072;6.678;2022-07-10T01:51:55;12.30;99.90
3001;DHT22;1510;51.072;6.678;2022-07-10T01:54:22;12.40;99.90
3001;DHT22;1510;51.072;6.678;2022-07-10T01:56:50;12.40;99.90
3001;DHT22;1510;51.072;6.678;2022-07-10T01:59:17;12.50;99.90
3001;DHT22;1510;51.072;6.678;2022-07-10T02:01:43;12.60;99.90
3001;DHT22;1510;51.072;6.678;2022-07-10T02:04:10;12.60;99.90
3001;DHT22;1510;51.072;6.678;2022-07-10T02:07:00;12.60;99.90
3001;DHT22;1510;51.072;6.678;2022-07-10T02:09:27;12.60;99.90
3001;DHT22;1510;51.072;6.678;2022-07-10T02:11:55;12.60;99.90
3001;DHT22;1510;51.072;6.678;2022-07-10T02:14:22;12.60;99.90
3001;DHT22;1510;51.072;6.678;2022-07-10T02:16:49;12.60;99.90
3001;DHT22;1510;51.072;6.678;2022-07-10T02:19:19;12.60;99.90
3001;DHT22;1510;51.072;6.678;2022-07-10T02:21:48;12.50;99.90
3001;DHT22;1510;51.072;6.678;2022-07-10T02:24:15;12.50;99.90
3001;DHT22;1510;51.072;6.678;2022-07-10T02:26:45;12.40;99.90
3001;DHT22;1510;51.072;6.678;2022-07-10T02:29:15;12.30;99.90
3001;DHT22;1510;51.072;6.678;2022-07-10T02:31:42;12.30;99.90
3001;DHT22;1510;51.072;6.678;2022-07-10T02:34:10;12.10;99.90
3001;DHT22;1510;51.072;6.678;2022-07-10T02:36:38;12.00;99.90
3001;DHT22;1510;51.072;6.678;2022-07-10T02:39:06;11.70;99.90
3001;DHT22;1510;51.072;6.678;2022-07-10T02:41:33;11.70;99.90
3001;DHT22;1510;51.072;6.678;2022-07-10T02:44:01;11.50;99.90
3001;DHT22;1510;51.072;6.678;2022-07-10T02:46:29;11.50;99.90
3001;DHT22;1510;51.072;6.678;2022-07-10T02:48:56;11.30;99.90
3001;DHT22;1510;51.072;6.678;2022-07-10T02:51:23;11.30;99.90
3001;DHT22;1510;51.072;6.678;2022-07-10T02:53:49;11.40;99.90
3001;DHT22;1510;51.072;6.678;2022-07-10T02:56:16;11.50;99.90
3001;DHT22;1510;51.072;6.678;2022-07-10T02:58:43;11.60;99.90
3001;DHT22;1510;51.072;6.678;2022-07-10T03:01:09;11.70;99.90
3001;DHT22;1510;51.072;6.678;2022-07-10T03:03:37;11.70;99.90
3001;DHT22;1510;51.072;6.678;2022-07-10T03:06:04;11.80;99.90
3001;DHT22;1510;51.072;6.678;2022-07-10T03:08:31;11.80;99.90
3001;DHT22;1510;51.072;6.678;2022-07-10T03:10:58;11.80;99.90
3001;DHT22;1510;51.072;6.678;2022-07-10T03:13:24;11.80;99.90
3001;DHT22;1510;51.072;6.678;2022-07-10T03:15:53;11.80;99.90
3001;DHT22;1510;51.072;6.678;2022-07-10T03:18:20;11.70;99.90
3001;DHT22;1510;51.072;6.678;2022-07-10T03:27:30;11.50;99.90
3001;DHT22;1510;51.072;6.678;2022-07-10T03:29:57;11.50;99.90
3001;DHT22;1510;51.072;6.678;2022-07-10T03:32:27;11.50;99.90
3001;DHT22;1510;51.072;6.678;2022-07-10T03:34:54;11.50;99.90
3001;DHT22;1510;51.072;6.678;2022-07-10T03:37:26;11.40;99.90
3001;DHT22;1510;51.072;6.678;2022-07-10T03:40:02;11.50;99.90
3001;DHT22;1510;51.072;6.678;2022-07-10T03:42:34;11.50;99.90
3001;DHT22;1510;51.072;6.678;2022-07-10T03:45:03;11.50;99.90
3001;DHT22;1510;51.072;6.678;2022-07-10T03:47:36;11.50;99.90
3001;DHT22;1510;51.072;6.678;2022-07-10T03:50:04;11.50;99.90
3001;DHT22;1510;51.072;6.678;2022-07-10T03:52:30;11.40;99.90
3001;DHT22;1510;51.072;6.678;2022-07-10T03:54:57;11.30;99.90
3001;DHT22;1510;51.072;6.678;2022-07-10T03:57:24;11.30;99.90
3001;DHT22;1510;51.072;6.678;2022-07-10T04:00:11;11.30;99.90
3001;DHT22;1510;51.072;6.678;2022-07-10T04:02:38;11.40;99.90
3001;DHT22;1510;51.072;6.678;2022-07-10T04:05:05;11.20;99.90
3001;DHT22;1510;51.072;6.678;2022-07-10T04:07:33;11.20;99.90
3001;DHT22;1510;51.072;6.678;2022-07-10T04:10:00;11.00;99.90
3001;DHT22;1510;51.072;6.678;2022-07-10T04:12:27;11.00;99.90
3001;DHT22;1510;51.072;6.678;2022-07-10T04:14:53;11.00;99.90
3001;DHT22;1510;51.072;6.678;2022-07-10T04:17:22;11.00;99.90
3001;DHT22;1510;51.072;6.678;2022-07-10T04:19:49;11.00;99.90
3001;DHT22;1510;51.072;6.678;2022-07-10T04:22:16;11.10;99.90
3001;DHT22;1510;51.072;6.678;2022-07-10T04:24:43;11.20;99.90
3001;DHT22;1510;51.072;6.678;2022-07-10T04:27:10;11.20;99.90
3001;DHT22;1510;51.072;6.678;2022-07-10T04:29:36;11.40;99.90
3001;DHT22;1510;51.072;6.678;2022-07-10T04:32:04;11.50;99.90
3001;DHT22;1510;51.072;6.678;2022-07-10T04:34:32;11.70;99.90
3001;DHT22;1510;51.072;6.678;2022-07-10T04:36:59;12.00;99.90
3001;DHT22;1510;51.072;6.678;2022-07-10T04:39:25;12.20;99.90
3001;DHT22;1510;51.072;6.678;2022-07-10T04:41:52;12.50;99.90
3001;DHT22;1510;51.072;6.678;2022-07-10T04:44:19;12.70;99.90
3001;DHT22;1510;51.072;6.678;2022-07-10T04:46:46;12.90;99.90
3001;DHT22;1510;51.072;6.678;2022-07-10T04:49:13;13.20;99.90
3001;DHT22;1510;51.072;6.678;2022-07-10T04:51:41;13.40;99.90
3001;DHT22;1510;51.072;6.678;2022-07-10T04:54:08;13.50;98.10
3001;DHT22;1510;51.072;6.678;2022-07-10T04:56:34;13.70;96.90
3001;DHT22;1510;51.072;6.678;2022-07-10T04:59:01;13.90;96.70
3001;DHT22;1510;51.072;6.678;2022-07-10T05:01:28;14.00;94.50
3001;DHT22;1510;51.072;6.678;2022-07-10T05:03:55;14.10;91.30
3001;DHT22;1510;51.072;6.678;2022-07-10T05:06:22;14.30;92.20
3001;DHT22;1510;51.072;6.678;2022-07-10T05:08:50;14.40;90.20
3001;DHT22;1510;51.072;6.678;2022-07-10T05:11:17;14.40;89.70
3001;DHT22;1510;51.072;6.678;2022-07-10T05:13:43;14.40;88.70
3001;DHT22;1510;51.072;6.678;2022-07-10T05:16:11;14.40;87.60
3001;DHT22;1510;51.072;6.678;2022-07-10T05:18:39;14.50;86.80
3001;DHT22;1510;51.072;6.678;2022-07-10T05:21:06;14.60;83.50
3001;DHT22;1510;51.072;6.678;2022-07-10T05:23:33;14.80;83.60
3001;DHT22;1510;51.072;6.678;2022-07-10T05:26:01;14.90;81.40
3001;DHT22;1510;51.072;6.678;2022-07-10T05:28:28;15.10;80.20
3001;DHT22;1510;51.072;6.678;2022-07-10T05:30:55;15.40;79.10
3001;DHT22;1510;51.072;6.678;2022-07-10T05:33:21;15.60;75.60
3001;DHT22;1510;51.072;6.678;2022-07-10T05:35:48;15.70;73.30
3001;DHT22;1510;51.072;6.678;2022-07-10T05:38:15;16.00;71.00
3001;DHT22;1510;51.072;6.678;2022-07-10T05:40:43;16.30;68.60
3001;DHT22;1510;51.072;6.678;2022-07-10T05:43:11;16.50;66.90
3001;DHT22;1510;51.072;6.678;2022-07-10T05:45:38;16.50;66.30
3001;DHT22;1510;51.072;6.678;2022-07-10T05:48:05;16.40;66.80
3001;DHT22;1510;51.072;6.678;2022-07-10T05:50:31;16.20;66.60
3001;DHT22;1510;51.072;6.678;2022-07-10T05:52:58;16.10;66.50
3001;DHT22;1510;51.072;6.678;2022-07-10T05:55:25;16.10;66.50
3001;DHT22;1510;51.072;6.678;2022-07-10T05:58:02;16.10;66.50
3001;DHT22;1510;51.072;6.678;2022-07-10T06:01:03;16.00;66.50
3001;DHT22;1510;51.072;6.678;2022-07-10T06:03:37;16.00;66.50
3001;DHT22;1510;51.072;6.678;2022-07-10T06:06:05;16.10;66.60
3001;DHT22;1510;51.072;6.678;2022-07-10T06:08:31;16.60;65.60
3001;DHT22;1510;51.072;6.678;2022-07-10T06:10:58;16.80;63.50
3001;DHT22;1510;51.072;6.678;2022-07-10T06:13:25;16.90;60.60
3001;DHT22;1510;51.072;6.678;2022-07-10T06:15:52;17.20;62.20
3001;DHT22;1510;51.072;6.678;2022-07-10T06:18:20;17.40;59.40
3001;DHT22;1510;51.072;6.678;2022-07-10T06:20:46;17.60;56.90
3001;DHT22;1510;51.072;6.678;2022-07-10T06:23:13;17.50;56.80
3001;DHT22;1510;51.072;6.678;2022-07-10T06:25:40;17.30;58.20
3001;DHT22;1510;51.072;6.678;2022-07-10T06:28:07;17.10;59.20
3001;DHT22;1510;51.072;6.678;2022-07-10T06:30:33;16.90;61.90
3001;DHT22;1510;51.072;6.678;2022-07-10T06:33:00;16.90;61.20
3001;DHT22;1510;51.072;6.678;2022-07-10T06:35:28;16.50;60.50
3001;DHT22;1510;51.072;6.678;2022-07-10T06:37:55;16.40;62.30
3001;DHT22;1510;51.072;6.678;2022-07-10T06:40:22;16.20;61.80
3001;DHT22;1510;51.072;6.678;2022-07-10T06:42:49;16.20;63.20
3001;DHT22;1510;51.072;6.678;2022-07-10T06:45:16;16.10;63.20
3001;DHT22;1510;51.072;6.678;2022-07-10T06:47:43;16.00;64.50
3001;DHT22;1510;51.072;6.678;2022-07-10T06:50:26;15.90;63.60
3001;DHT22;1510;51.072;6.678;2022-07-10T06:52:56;15.90;64.70
3001;DHT22;1510;51.072;6.678;2022-07-10T06:55:23;16.00;65.00
3001;DHT22;1510;51.072;6.678;2022-07-10T06:57:50;16.00;63.60
3001;DHT22;1510;51.072;6.678;2022-07-10T07:00:17;15.90;63.20
3001;DHT22;1510;51.072;6.678;2022-07-10T07:02:44;16.00;64.50
3001;DHT22;1510;51.072;6.678;2022-07-10T07:05:11;16.10;66.00
3001;DHT22;1510;51.072;6.678;2022-07-10T07:07:39;16.00;64.70
3001;DHT22;1510;51.072;6.678;2022-07-10T07:10:08;16.20;62.60
3001;DHT22;1510;51.072;6.678;2022-07-10T07:12:36;16.20;63.50
3001;DHT22;1510;51.072;6.678;2022-07-10T07:15:03;16.20;63.30
3001;DHT22;1510;51.072;6.678;2022-07-10T07:17:31;16.20;63.70
3001;DHT22;1510;51.072;6.678;2022-07-10T07:20:11;16.30;63.40
3001;DHT22;1510;51.072;6.678;2022-07-10T07:22:56;16.40;62.20
3001;DHT22;1510;51.072;6.678;2022-07-10T07:25:40;16.60;61.90
3001;DHT22;1510;51.072;6.678;2022-07-10T07:28:12;16.80;61.20
3001;DHT22;1510;51.072;6.678;2022-07-10T07:30:40;16.90;61.20
3001;DHT22;1510;51.072;6.678;2022-07-10T07:33:07;17.00;59.10
3001;DHT22;1510;51.072;6.678;2022-07-10T07:35:36;16.80;57.60
3001;DHT22;1510;51.072;6.678;2022-07-10T07:38:03;17.00;59.10
3001;DHT22;1510;51.072;6.678;2022-07-10T07:40:32;17.00;60.20
3001;DHT22;1510;51.072;6.678;2022-07-10T07:43:06;17.00;55.20
3001;DHT22;1510;51.072;6.678;2022-07-10T07:45:37;17.10;56.30
3001;DHT22;1510;51.072;6.678;2022-07-10T07:48:06;17.10;56.30
3001;DHT22;1510;51.072;6.678;2022-07-10T07:50:35;17.10;57.50
3001;DHT22;1510;51.072;6.678;2022-07-10T07:53:04;17.10;55.90
3001;DHT22;1510;51.072;6.678;2022-07-10T07:55:32;16.90;55.30
3001;DHT22;1510;51.072;6.678;2022-07-10T07:57:59;16.90;50.90
3001;DHT22;1510;51.072;6.678;2022-07-10T08:00:28;17.00;56.10
3001;DHT22;1510;51.072;6.678;2022-07-10T08:02:56;16.90;51.90
3001;DHT22;1510;51.072;6.678;2022-07-10T08:05:26;16.80;52.00
3001;DHT22;1510;51.072;6.678;2022-07-10T08:07:54;17.00;51.00
3001;DHT22;1510;51.072;6.678;2022-07-10T08:10:25;17.10;52.20
3001;DHT22;1510;51.072;6.678;2022-07-10T08:12:52;17.10;53.10
3001;DHT22;1510;51.072;6.678;2022-07-10T08:15:20;16.90;53.60
3001;DHT22;1510;51.072;6.678;2022-07-10T08:17:53;17.00;51.80
3001;DHT22;1510;51.072;6.678;2022-07-10T08:20:21;17.20;50.70
3001;DHT22;1510;51.072;6.678;2022-07-10T08:22:48;17.20;52.40
3001;DHT22;1510;51.072;6.678;2022-07-10T08:25:15;17.60;51.00
3001;DHT22;1510;51.072;6.678;2022-07-10T08:27:42;18.00;51.30
3001;DHT22;1510;51.072;6.678;2022-07-10T08:30:14;18.10;51.40
3001;DHT22;1510;51.072;6.678;2022-07-10T08:32:41;18.40;51.70
3001;DHT22;1510;51.072;6.678;2022-07-10T08:35:10;18.20;50.70
3001;DHT22;1510;51.072;6.678;2022-07-10T08:37:39;18.30;49.10
3001;DHT22;1510;51.072;6.678;2022-07-10T08:42:56;18.70;49.10
3001;DHT22;1510;51.072;6.678;2022-07-10T08:45:23;18.90;48.60
3001;DHT22;1510;51.072;6.678;2022-07-10T08:47:54;19.00;46.50
3001;DHT22;1510;51.072;6.678;2022-07-10T08:53:41;18.10;48.90
3001;DHT22;1510;51.072;6.678;2022-07-10T08:56:12;18.10;48.70
3001;DHT22;1510;51.072;6.678;2022-07-10T08:59:01;18.20;51.50
3001;DHT22;1510;51.072;6.678;2022-07-10T09:01:42;18.10;51.40
3001;DHT22;1510;51.072;6.678;2022-07-10T09:04:45;17.90;51.30
3001;DHT22;1510;51.072;6.678;2022-07-10T09:07:58;18.00;51.60
3001;DHT22;1510;51.072;6.678;2022-07-10T09:10:42;18.20;52.90
3001;DHT22;1510;51.072;6.678;2022-07-10T09:13:37;18.60;51.90
3001;DHT22;1510;51.072;6.678;2022-07-10T09:16:38;19.40;47.70
3001;DHT22;1510;51.072;6.678;2022-07-10T09:22:57;19.70;46.60
3001;DHT22;1510;51.072;6.678;2022-07-10T09:28:31;18.60;49.00
3001;DHT22;1510;51.072;6.678;2022-07-10T09:30:58;18.40;50.10
3001;DHT22;1510;51.072;6.678;2022-07-10T09:33:50;18.40;51.10
3001;DHT22;1510;51.072;6.678;2022-07-10T09:36:22;18.40;51.70
3001;DHT22;1510;51.072;6.678;2022-07-10T09:38:51;18.20;50.30
3001;DHT22;1510;51.072;6.678;2022-07-10T09:41:32;18.30;51.70
3001;DHT22;1510;51.072;6.678;2022-07-10T09:44:04;18.20;50.80
3001;DHT22;1510;51.072;6.678;2022-07-10T09:46:34;18.00;51.30
3001;DHT22;1510;51.072;6.678;2022-07-10T09:49:07;17.30;59.40
3001;DHT22;1510;51.072;6.678;2022-07-10T09:51:35;16.90;62.80
3001;DHT22;1510;51.072;6.678;2022-07-10T09:54:11;16.70;71.20
3001;DHT22;1510;51.072;6.678;2022-07-10T09:56:51;16.40;73.50
3001;DHT22;1510;51.072;6.678;2022-07-10T09:59:42;16.50;76.30
3001;DHT22;1510;51.072;6.678;2022-07-10T10:05:37;16.60;86.20
3001;DHT22;1510;51.072;6.678;2022-07-10T10:08:37;16.60;80.00
3001;DHT22;1510;51.072;6.678;2022-07-10T10:11:05;17.40;76.50
3001;DHT22;1510;51.072;6.678;2022-07-10T10:17:00;19.70;61.60
3001;DHT22;1510;51.072;6.678;2022-07-10T10:19:50;20.00;54.20
3001;DHT22;1510;51.072;6.678;2022-07-10T10:23:05;19.80;53.00
3001;DHT22;1510;51.072;6.678;2022-07-10T10:25:33;20.10;53.20
3001;DHT22;1510;51.072;6.678;2022-07-10T10:28:01;20.30;49.20
3001;DHT22;1510;51.072;6.678;2022-07-10T10:33:43;19.80;53.10
3001;DHT22;1510;51.072;6.678;2022-07-10T10:36:13;19.90;53.10
3001;DHT22;1510;51.072;6.678;2022-07-10T10:39:19;20.20;49.80
3001;DHT22;1510;51.072;6.678;2022-07-10T10:52:21;21.20;43.10
3001;DHT22;1510;51.072;6.678;2022-07-10T10:55:15;21.00;43.60
3001;DHT22;1510;51.072;6.678;2022-07-10T10:57:43;20.60;44.30
3001;DHT22;1510;51.072;6.678;2022-07-10T11:00:33;20.30;46.10
3001;DHT22;1510;51.072;6.678;2022-07-10T11:03:26;19.80;47.60
3001;DHT22;1510;51.072;6.678;2022-07-10T11:05:53;18.90;51.50
3001;DHT22;1510;51.072;6.678;2022-07-10T11:08:38;18.70;54.70
3001;DHT22;1510;51.072;6.678;2022-07-10T11:11:36;18.60;58.00
3001;DHT22;1510;51.072;6.678;2022-07-10T11:14:03;19.30;54.40
3001;DHT22;1510;51.072;6.678;2022-07-10T11:16:31;20.10;48.60
3001;DHT22;1510;51.072;6.678;2022-07-10T11:19:00;20.00;48.20
3001;DHT22;1510;51.072;6.678;2022-07-10T11:21:28;19.60;50.30
3001;DHT22;1510;51.072;6.678;2022-07-10T11:24:11;19.20;51.50
3001;DHT22;1510;51.072;6.678;2022-07-10T11:26:49;19.00;52.30
3001;DHT22;1510;51.072;6.678;2022-07-10T11:29:18;19.00;52.90
3001;DHT22;1510;51.072;6.678;2022-07-10T11:31:52;19.50;51.80
3001;DHT22;1510;51.072;6.678;2022-07-10T11:34:19;19.70;49.70
3001;DHT22;1510;51.072;6.678;2022-07-10T11:36:48;20.30;50.50
3001;DHT22;1510;51.072;6.678;2022-07-10T11:39:18;20.20;46.00
3001;DHT22;1510;51.072;6.678;2022-07-10T11:41:46;19.40;47.70
3001;DHT22;1510;51.072;6.678;2022-07-10T11:44:18;19.10;52.00
3001;DHT22;1510;51.072;6.678;2022-07-10T11:46:46;18.80;53.90
3001;DHT22;1510;51.072;6.678;2022-07-10T11:49:15;18.50;54.00
3001;DHT22;1510;51.072;6.678;2022-07-10T11:51:45;18.20;54.60
3001;DHT22;1510;51.072;6.678;2022-07-10T11:54:13;17.80;63.00
3001;DHT22;1510;51.072;6.678;2022-07-10T11:56:48;17.60;64.10
3001;DHT22;1510;51.072;6.678;2022-07-10T11:59:18;17.70;68.00
3001;DHT22;1510;51.072;6.678;2022-07-10T12:01:55;18.00;65.90
3001;DHT22;1510;51.072;6.678;2022-07-10T12:04:24;18.80;62.10
3001;DHT22;1510;51.072;6.678;2022-07-10T12:06:53;19.30;55.40
3001;DHT22;1510;51.072;6.678;2022-07-10T12:09:23;20.00;52.90
3001;DHT22;1510;51.072;6.678;2022-07-10T12:12:02;20.10;48.10
3001;DHT22;1510;51.072;6.678;2022-07-10T12:14:30;20.70;50.60
3001;DHT22;1510;51.072;6.678;2022-07-10T12:16:58;20.80;48.60
3001;DHT22;1510;51.072;6.678;2022-07-10T12:22:44;20.10;45.90
3001;DHT22;1510;51.072;6.678;2022-07-10T12:25:11;19.60;46.80
3001;DHT22;1510;51.072;6.678;2022-07-10T12:27:42;19.30;48.60
3001;DHT22;1510;51.072;6.678;2022-07-10T12:30:09;19.50;50.70
3001;DHT22;1510;51.072;6.678;2022-07-10T12:32:36;19.40;47.80
3001;DHT22;1510;51.072;6.678;2022-07-10T12:35:04;19.20;48.60
3001;DHT22;1510;51.072;6.678;2022-07-10T12:37:47;18.90;48.20
3001;DHT22;1510;51.072;6.678;2022-07-10T12:41:06;18.80;51.30
3001;DHT22;1510;51.072;6.678;2022-07-10T12:43:35;19.00;52.20
3001;DHT22;1510;51.072;6.678;2022-07-10T12:46:10;19.20;52.30
3001;DHT22;1510;51.072;6.678;2022-07-10T12:48:41;19.60;51.70
3001;DHT22;1510;51.072;6.678;2022-07-10T12:51:20;19.70;46.40
3001;DHT22;1510;51.072;6.678;2022-07-10T12:53:47;20.00;46.50
3001;DHT22;1510;51.072;6.678;2022-07-10T12:56:35;20.20;45.60
3001;DHT22;1510;51.072;6.678;2022-07-10T12:59:13;20.30;46.00
3001;DHT22;1510;51.072;6.678;2022-07-10T13:01:43;20.10;46.40
3001;DHT22;1510;51.072;6.678;2022-07-10T13:04:13;20.00;47.40
3001;DHT22;1510;51.072;6.678;2022-07-10T13:06:42;19.80;47.00
3001;DHT22;1510;51.072;6.678;2022-07-10T13:09:24;19.50;48.00
3001;DHT22;1510;51.072;6.678;2022-07-10T13:11:53;19.40;48.70
3001;DHT22;1510;51.072;6.678;2022-07-10T13:14:21;19.20;50.30
3001;DHT22;1510;51.072;6.678;2022-07-10T13:16:48;19.20;48.30
3001;DHT22;1510;51.072;6.678;2022-07-10T13:19:15;19.50;49.80
3001;DHT22;1510;51.072;6.678;2022-07-10T13:21:42;19.70;47.30
3001;DHT22;1510;51.072;6.678;2022-07-10T13:24:09;20.20;47.20
3001;DHT22;1510;51.072;6.678;2022-07-10T13:26:36;20.90;45.20
3001;DHT22;1510;51.072;6.678;2022-07-10T13:29:03;22.80;37.90
3001;DHT22;1510;51.072;6.678;2022-07-10T13:31:46;23.70;31.70
3001;DHT22;1510;51.072;6.678;2022-07-10T13:34:13;24.70;30.40
3001;DHT22;1510;51.072;6.678;2022-07-10T13:36:40;24.40;27.10
3001;DHT22;1510;51.072;6.678;2022-07-10T13:39:06;24.20;25.80
3001;DHT22;1510;51.072;6.678;2022-07-10T13:41:33;23.40;29.50
3001;DHT22;1510;51.072;6.678;2022-07-10T13:44:00;22.80;29.00
3001;DHT22;1510;51.072;6.678;2022-07-10T13:46:32;22.60;33.00
3001;DHT22;1510;51.072;6.678;2022-07-10T13:49:06;22.80;34.60
3001;DHT22;1510;51.072;6.678;2022-07-10T13:51:33;22.50;30.40
3001;DHT22;1510;51.072;6.678;2022-07-10T13:57:22;22.60;28.90
3001;DHT22;1510;51.072;6.678;2022-07-10T13:59:57;22.40;29.90
3001;DHT22;1510;51.072;6.678;2022-07-10T14:02:24;22.30;32.20
3001;DHT22;1510;51.072;6.678;2022-07-10T14:04:52;22.20;31.50
3001;DHT22;1510;51.072;6.678;2022-07-10T14:07:19;22.00;32.60
3001;DHT22;1510;51.072;6.678;2022-07-10T14:10:11;22.40;35.20
3001;DHT22;1510;51.072;6.678;2022-07-10T14:12:40;22.60;32.80
3001;DHT22;1510;51.072;6.678;2022-07-10T14:15:08;22.80;31.70
3001;DHT22;1510;51.072;6.678;2022-07-10T14:17:45;23.10;33.00
3001;DHT22;1510;51.072;6.678;2022-07-10T14:20:15;23.30;29.40
3001;DHT22;1510;51.072;6.678;2022-07-10T14:22:42;23.30;29.70
3001;DHT22;1510;51.072;6.678;2022-07-10T14:25:11;22.40;28.70
3001;DHT22;1510;51.072;6.678;2022-07-10T14:27:39;22.20;28.70
3001;DHT22;1510;51.072;6.678;2022-07-10T14:30:08;22.70;30.80
3001;DHT22;1510;51.072;6.678;2022-07-10T14:32:37;22.70;29.70
3001;DHT22;1510;51.072;6.678;2022-07-10T14:35:05;22.80;29.90
3001;DHT22;1510;51.072;6.678;2022-07-10T14:37:33;22.70;31.90
3001;DHT22;1510;51.072;6.678;2022-07-10T14:49:14;21.90;32.10
3001;DHT22;1510;51.072;6.678;2022-07-10T14:49:37;21.40;34.30
3001;DHT22;1510;51.072;6.678;2022-07-10T14:52:16;21.10;36.30
3001;DHT22;1510;51.072;6.678;2022-07-10T14:54:47;20.90;38.80
3001;DHT22;1510;51.072;6.678;2022-07-10T15:00:43;21.00;36.20
3001;DHT22;1510;51.072;6.678;2022-07-10T15:03:18;21.00;37.70
3001;DHT22;1510;51.072;6.678;2022-07-10T15:05:45;21.10;36.30
3001;DHT22;1510;51.072;6.678;2022-07-10T15:08:14;21.00;36.20
3001;DHT22;1510;51.072;6.678;2022-07-10T15:11:24;21.00;37.40
3001;DHT22;1510;51.072;6.678;2022-07-10T15:13:51;21.00;36.70
3001;DHT22;1510;51.072;6.678;2022-07-10T15:16:24;20.80;36.10
3001;DHT22;1510;51.072;6.678;2022-07-10T15:18:51;21.00;37.60
3001;DHT22;1510;51.072;6.678;2022-07-10T15:21:18;21.10;36.30
3001;DHT22;1510;51.072;6.678;2022-07-10T15:27:15;21.20;38.30
3001;DHT22;1510;51.072;6.678;2022-07-10T15:29:42;21.20;36.40
3001;DHT22;1510;51.072;6.678;2022-07-10T15:32:25;21.20;37.00
3001;DHT22;1510;51.072;6.678;2022-07-10T15:34:54;21.20;36.40
3001;DHT22;1510;51.072;6.678;2022-07-10T15:37:21;21.20;36.40
3001;DHT22;1510;51.072;6.678;2022-07-10T15:39:48;21.40;36.60
3001;DHT22;1510;51.072;6.678;2022-07-10T15:45:30;21.10;36.30
3001;DHT22;1510;51.072;6.678;2022-07-10T15:48:02;21.20;36.40
3001;DHT22;1510;51.072;6.678;2022-07-10T15:50:43;21.00;36.40
3001;DHT22;1510;51.072;6.678;2022-07-10T15:53:10;20.80;36.40
3001;DHT22;1510;51.072;6.678;2022-07-10T15:55:37;20.70;37.40
3001;DHT22;1510;51.072;6.678;2022-07-10T15:58:28;20.60;37.70
3001;DHT22;1510;51.072;6.678;2022-07-10T16:01:42;20.80;39.40
3001;DHT22;1510;51.072;6.678;2022-07-10T16:04:09;20.80;38.50
3001;DHT22;1510;51.072;6.678;2022-07-10T16:06:35;20.80;38.30
3001;DHT22;1510;51.072;6.678;2022-07-10T16:12:10;21.00;37.90
3001;DHT22;1510;51.072;6.678;2022-07-10T16:15:06;21.20;39.70
3001;DHT22;1510;51.072;6.678;2022-07-10T16:17:37;21.10;37.80
3001;DHT22;1510;51.072;6.678;2022-07-10T16:20:25;21.30;39.10
3001;DHT22;1510;51.072;6.678;2022-07-10T16:22:52;21.50;37.70
3001;DHT22;1510;51.072;6.678;2022-07-10T16:28:58;21.10;36.30
3001;DHT22;1510;51.072;6.678;2022-07-10T16:32:00;21.20;37.30
3001;DHT22;1510;51.072;6.678;2022-07-10T16:38:13;21.10;36.80
3001;DHT22;1510;51.072;6.678;2022-07-10T16:41:45;21.10;39.00
3001;DHT22;1510;51.072;6.678;2022-07-10T16:51:03;20.40;39.00
3001;DHT22;1510;51.072;6.678;2022-07-10T16:54:15;20.20;40.50
3001;DHT22;1510;51.072;6.678;2022-07-10T16:57:00;20.10;41.50
3001;DHT22;1510;51.072;6.678;2022-07-10T16:59:35;20.10;42.30
3001;DHT22;1510;51.072;6.678;2022-07-10T17:02:02;20.00;42.10
3001;DHT22;1510;51.072;6.678;2022-07-10T17:04:30;19.90;43.00
3001;DHT22;1510;51.072;6.678;2022-07-10T17:07:05;19.80;43.10
3001;DHT22;1510;51.072;6.678;2022-07-10T17:09:40;19.80;42.80
3001;DHT22;1510;51.072;6.678;2022-07-10T17:12:07;19.70;44.10
3001;DHT22;1510;51.072;6.678;2022-07-10T17:14:35;19.80;45.20
3001;DHT22;1510;51.072;6.678;2022-07-10T17:17:08;19.90;44.50
3001;DHT22;1510;51.072;6.678;2022-07-10T17:19:38;19.80;44.20
3001;DHT22;1510;51.072;6.678;2022-07-10T17:22:08;19.90;44.30
3001;DHT22;1510;51.072;6.678;2022-07-10T17:24:45;19.90;44.30
3001;DHT22;1510;51.072;6.678;2022-07-10T17:27:15;20.00;44.40
3001;DHT22;1510;51.072;6.678;2022-07-10T17:29:43;19.90;44.40
3001;DHT22;1510;51.072;6.678;2022-07-10T17:32:15;20.00;44.40
3001;DHT22;1510;51.072;6.678;2022-07-10T17:34:42;20.00;45.70
3001;DHT22;1510;51.072;6.678;2022-07-10T17:37:11;19.90;44.30
3001;DHT22;1510;51.072;6.678;2022-07-10T17:39:44;20.00;44.40
3001;DHT22;1510;51.072;6.678;2022-07-10T17:42:15;19.80;44.20
3001;DHT22;1510;51.072;6.678;2022-07-10T17:44:45;19.80;45.10
3001;DHT22;1510;51.072;6.678;2022-07-10T17:47:16;19.80;45.70
3001;DHT22;1510;51.072;6.678;2022-07-10T17:49:54;19.70;44.70